Time;durP1;ratioP1;P1;durP2;ratioP2;P2;SDS_P1;SDS_P2;PMS_P1;PMS_P2;Temp;Humidity;BMP_temperature;BMP_pressure;BME280_temperature;BME280_humidity;BME280_pressure;Samples;Min_cycle;Max_cycle;Signal;HPM_P1;HPM_P2
2022/04/11 00:00:29;;;;;;;1.65;1.40;;;;;;;5.51;100.00;149044.89;1745864;81;21090;-62
2022/04/11 00:02:56;;;;;;;2.92;1.52;;;;;;;5.40;99.79;149017.73;1738536;81;21723;-63
2022/04/11 00:05:25;;;;;;;1.57;1.40;;;;;;;5.30;99.54;148993.19;1756025;81;21228;-62
2022/04/11 00:07:54;;;;;;;1.75;1.60;;;;;;;5.00;100.00;148919.50;1756066;81;21061;-66
2022/04/11 00:10:22;;;;;;;2.02;1.70;;;;;;;5.00;100.00;148919.50;1745848;82;21084;-66
2022/04/11 00:12:50;;;;;;;1.82;1.30;;;;;;;4.86;100.00;148884.63;1745528;82;21076;-66
2022/04/11 00:15:18;;;;;;;2.45;1.50;;;;;;;4.78;100.00;148862.66;1753098;81;21092;-67
2022/04/11 00:17:46;;;;;;;2.00;1.67;;;;;;;4.71;100.00;148847.17;1738750;82;21775;-67
2022/04/11 00:20:15;;;;;;;2.55;1.90;;;;;;;4.71;100.00;148847.17;1724489;83;20967;-64
2022/04/11 00:22:42;;;;;;;1.95;1.50;;;;;;;4.68;100.00;148838.11;1751199;81;21087;-66
2022/04/11 00:25:09;;;;;;;1.47;1.20;;;;;;;4.66;100.00;148832.94;1726093;81;20931;-67
2022/04/11 00:27:38;;;;;;;2.35;1.80;;;;;;;4.64;100.00;148827.78;1725400;81;21381;-66
2022/04/11 00:30:07;;;;;;;2.02;1.62;;;;;;;4.64;100.00;148827.78;1746782;81;21418;-67
2022/04/11 00:32:43;;;;;;;2.10;1.65;;;;;;;4.62;100.00;148822.63;1753774;81;22114;-67
2022/04/11 00:35:11;;;;;;;1.75;1.52;;;;;;;4.64;100.00;148829.09;1724446;82;20962;-64
2022/04/11 00:37:38;;;;;;;2.25;1.82;;;;;;;4.62;100.00;148822.63;1742731;82;21146;-64
2022/04/11 00:40:09;;;;;;;4.70;1.55;;;;;;;4.57;100.00;148812.28;1746407;81;21053;-63
2022/04/11 00:42:37;;;;;;;3.40;1.70;;;;;;;4.52;100.00;148799.34;1748855;81;21437;-63
2022/04/11 00:45:06;;;;;;;2.33;1.50;;;;;;;4.49;100.00;148791.59;1746956;81;21087;-63
2022/04/11 00:47:34;;;;;;;2.50;1.50;;;;;;;4.48;100.00;148787.75;1748956;81;21461;-63
2022/04/11 00:50:06;;;;;;;1.98;1.50;;;;;;;4.44;100.00;148778.69;1743380;81;21413;-63
2022/04/11 00:52:35;;;;;;;1.25;1.15;;;;;;;4.44;100.00;148778.69;1725094;82;21045;-63
2022/04/11 00:55:07;;;;;;;1.27;1.12;;;;;;;4.41;100.00;148770.94;1732800;82;21044;-64
2022/04/11 00:57:36;;;;;;;1.55;1.32;;;;;;;4.37;100.00;148760.62;1732023;82;20999;-66
2022/04/11 01:00:06;;;;;;;1.20;1.10;;;;;;;4.37;100.00;148760.62;1746485;81;21308;-65
2022/04/11 01:02:34;;;;;;;1.00;1.00;;;;;;;4.37;100.00;148761.89;1746774;81;20998;-63
2022/04/11 01:05:04;;;;;;;1.77;1.17;;;;;;;4.37;100.00;148760.62;1747523;81;21231;-65
2022/04/11 01:07:32;;;;;;;1.42;0.90;;;;;;;4.34;100.00;148752.87;1718265;81;21072;-65
2022/04/11 01:10:00;;;;;;;1.45;1.17;;;;;;;4.34;100.00;148752.87;1745098;80;21062;-63
2022/04/11 01:12:28;;;;;;;0.70;0.70;;;;;;;4.32;100.00;148747.72;1733630;81;21233;-64
2022/04/11 01:14:58;;;;;;;2.00;1.00;;;;;;;4.33;100.00;148750.30;1734461;81;21047;-68
2022/04/11 01:17:34;;;;;;;1.25;0.80;;;;;;;4.33;100.00;148750.30;1730799;81;21631;-67
2022/04/11 01:20:10;;;;;;;4.55;1.10;;;;;;;4.34;100.00;148752.87;1726904;83;21012;-68
2022/04/11 01:22:40;;;;;;;1.40;0.88;;;;;;;4.34;100.00;148752.87;1747670;81;20973;-67
2022/04/11 01:25:08;;;;;;;1.00;0.70;;;;;;;4.37;100.00;148761.89;1740040;82;21045;-67
2022/04/11 01:27:38;;;;;;;1.00;0.90;;;;;;;4.40;100.00;148768.38;1698172;82;21086;-66
2022/04/11 01:30:08;;;;;;;2.87;0.90;;;;;;;4.43;100.00;148776.11;1751544;81;21240;-66
2022/04/11 01:32:37;;;;;;;1.05;0.60;;;;;;;4.41;100.00;148770.94;1743459;81;21088;-66
2022/04/11 01:35:07;;;;;;;1.57;0.95;;;;;;;4.43;100.00;148776.11;1743135;82;21072;-66
2022/04/11 01:37:35;;;;;;;1.42;0.93;;;;;;;4.43;100.00;148777.42;1708518;82;21127;-67
2022/04/11 01:40:06;;;;;;;1.10;0.82;;;;;;;4.44;100.00;148780.00;1752203;81;21039;-66
2022/04/11 01:42:34;;;;;;;1.65;0.98;;;;;;;4.45;100.00;148781.27;1742099;81;21460;-66
2022/04/11 01:45:01;;;;;;;0.70;0.70;;;;;;;4.44;100.00;148778.69;1749737;80;21029;-67
2022/04/11 01:47:29;;;;;;;0.95;0.80;;;;;;;4.45;99.93;148781.27;1747680;81;20944;-67
2022/04/11 01:49:56;;;;;;;0.82;0.70;;;;;;;4.47;99.83;148785.17;1743722;81;21700;-66
2022/04/11 01:52:26;;;;;;;1.15;0.90;;;;;;;4.47;99.76;148786.44;1749844;81;21540;-67
2022/04/11 01:54:53;;;;;;;0.98;0.80;;;;;;;4.47;99.59;148786.44;1751552;81;21526;-67
2022/04/11 01:57:21;;;;;;;1.42;0.70;;;;;;;4.46;99.42;148783.84;1745921;80;20886;-68
2022/04/11 01:59:48;;;;;;;0.37;0.37;;;;;;;4.45;99.20;148781.27;1741784;81;20954;-68
2022/04/11 02:02:15;;;;;;;1.65;0.70;;;;;;;4.44;99.23;148780.00;1740881;80;21125;-67
2022/04/11 02:04:43;;;;;;;1.02;0.70;;;;;;;4.44;99.17;148780.00;1721055;81;21103;-66
2022/04/11 02:07:11;;;;;;;0.82;0.60;;;;;;;4.45;99.17;148781.27;1746645;81;21247;-66
2022/04/11 02:09:38;;;;;;;4.50;0.90;;;;;;;4.48;99.15;148789.02;1742737;82;21080;-67
2022/04/11 02:12:08;;;;;;;0.50;0.45;;;;;;;4.47;99.02;148785.17;1737360;80;21091;-67
2022/04/11 02:14:36;;;;;;;1.22;0.70;;;;;;;4.46;98.98;148783.84;1727724;81;21548;-66
2022/04/11 02:17:04;;;;;;;0.90;0.90;;;;;;;4.46;99.00;148783.84;1729020;81;21534;-66
2022/04/11 02:19:32;;;;;;;0.70;0.68;;;;;;;4.48;98.85;148789.02;1756113;81;21215;-65
2022/04/11 02:21:59;;;;;;;1.75;0.82;;;;;;;4.49;98.65;148791.59;1748252;81;21015;-63
2022/04/11 02:24:26;;;;;;;0.62;0.62;;;;;;;4.51;98.69;148796.75;1758565;80;21031;-63
2022/04/11 02:26:54;;;;;;;0.80;0.75;;;;;;;4.51;98.29;148795.50;1759603;81;21117;-63
2022/04/11 02:29:22;;;;;;;1.07;0.70;;;;;;;4.52;98.12;148799.34;1756724;80;21043;-64
2022/04/11 02:31:50;;;;;;;1.00;0.88;;;;;;;4.53;97.98;148801.97;1720871;81;21067;-64
2022/04/11 02:34:19;;;;;;;1.35;0.90;;;;;;;4.53;97.75;148801.97;1735112;81;20979;-63
2022/04/11 02:36:48;;;;;;;1.00;0.90;;;;;;;4.54;97.70;148804.55;1708818;83;21472;-63
2022/04/11 02:39:15;;;;;;;1.87;0.70;;;;;;;4.54;97.70;148804.55;1749164;80;21505;-62
2022/04/11 02:41:43;;;;;;;3.45;0.90;;;;;;;4.55;97.41;148807.13;1746549;80;21456;-63
2022/04/11 02:44:10;;;;;;;1.65;1.10;;;;;;;4.56;97.23;148809.72;1744752;81;21267;-63
2022/04/11 02:46:37;;;;;;;0.90;0.90;;;;;;;4.59;98.03;148817.45;1745531;81;21511;-64
2022/04/11 02:49:05;;;;;;;1.75;0.90;;;;;;;4.59;98.03;148817.45;1747716;80;21060;-62
2022/04/11 02:51:35;;;;;;;1.07;0.98;;;;;;;4.61;97.50;148820.03;1747073;81;21127;-64
2022/04/11 02:54:07;;;;;;;1.45;1.17;;;;;;;4.63;97.11;148825.19;1755882;81;21487;-64
2022/04/11 02:56:37;;;;;;;0.95;0.90;;;;;;;4.63;96.67;148826.47;1757970;81;21292;-62
2022/04/11 02:59:06;;;;;;;2.35;1.10;;;;;;;4.64;96.38;148827.78;1757570;81;22147;-62
2022/04/11 03:01:34;;;;;;;3.60;1.17;;;;;;;4.64;96.26;148827.78;1752117;81;21428;-62
2022/04/11 03:04:01;;;;;;;2.00;1.50;;;;;;;4.63;96.22;148826.47;1744286;81;21110;-62
2022/04/11 03:06:30;;;;;;;1.47;1.27;;;;;;;4.63;96.18;148825.19;1750138;81;21032;-63
2022/04/11 03:08:58;;;;;;;1.37;1.20;;;;;;;4.63;96.18;148825.19;1751060;80;21776;-63
2022/04/11 03:11:28;;;;;;;1.42;1.20;;;;;;;4.63;96.10;148826.47;1759342;80;21455;-62
2022/04/11 03:13:56;;;;;;;1.25;1.05;;;;;;;4.63;96.20;148825.19;1755927;81;21453;-63
2022/04/11 03:16:25;;;;;;;1.27;1.10;;;;;;;4.63;96.06;148825.19;1759669;81;21090;-63
2022/04/11 03:18:52;;;;;;;1.65;1.20;;;;;;;4.62;96.13;148822.63;1750434;81;21044;-63
2022/04/11 03:21:20;;;;;;;1.42;1.17;;;;;;;4.64;96.30;148829.09;1755361;81;21250;-63
2022/04/11 03:23:49;;;;;;;1.50;1.00;;;;;;;4.65;96.35;148830.36;1750861;81;21128;-63
2022/04/11 03:26:18;;;;;;;1.40;1.30;;;;;;;4.66;95.61;148832.94;1759451;80;21384;-63
2022/04/11 03:28:45;;;;;;;1.90;1.12;;;;;;;4.67;95.45;148835.53;1751992;81;21708;-63
2022/04/11 03:31:13;;;;;;;1.67;1.12;;;;;;;4.69;95.29;148840.69;1756496;80;21040;-63
2022/04/11 03:33:41;;;;;;;1.45;1.30;;;;;;;4.68;95.22;148838.11;1758579;81;21462;-63
2022/04/11 03:36:09;;;;;;;1.98;1.40;;;;;;;4.73;95.20;148851.02;1759414;80;21073;-63
2022/04/11 03:38:37;;;;;;;1.37;1.20;;;;;;;4.75;95.26;148856.17;1759174;81;21576;-63
2022/04/11 03:41:06;;;;;;;1.55;1.30;;;;;;;4.75;95.03;148856.17;1756123;81;21465;-68
2022/04/11 03:43:34;;;;;;;4.47;1.52;;;;;;;4.76;95.03;148858.81;1757567;80;21019;-65
2022/04/11 03:46:01;;;;;;;2.35;1.50;;;;;;;4.79;95.02;148865.23;1749892;81;21787;-68
2022/04/11 03:48:30;;;;;;;1.98;1.27;;;;;;;4.80;94.96;148867.81;1752249;80;21518;-68
2022/04/11 03:50:57;;;;;;;2.85;1.65;;;;;;;4.81;94.77;148870.41;1747754;81;21553;-68
2022/04/11 03:53:25;;;;;;;1.10;1.00;;;;;;;4.80;94.62;148867.81;1759118;81;21596;-67
2022/04/11 03:55:54;;;;;;;1.52;1.20;;;;;;;4.81;94.22;148871.72;1750834;81;21115;-65
2022/04/11 03:58:23;;;;;;;1.32;1.22;;;;;;;4.82;94.25;148872.98;1756009;80;21382;-64
2022/04/11 04:00:52;;;;;;;2.22;1.30;;;;;;;4.83;94.30;148875.56;1722930;81;21103;-65
2022/04/11 04:03:29;;;;;;;1.42;1.12;;;;;;;4.81;94.18;148870.41;1756114;81;21023;-64
2022/04/11 04:06:04;;;;;;;1.67;1.30;;;;;;;4.85;94.22;148882.05;1751706;81;21384;-63
2022/04/11 04:08:34;;;;;;;1.75;1.25;;;;;;;4.84;94.36;148879.47;1752076;81;21085;-64
2022/04/11 04:11:09;;;;;;;3.30;1.25;;;;;;;4.83;94.16;148875.56;1755133;81;21127;-63
2022/04/11 04:13:37;;;;;;;1.92;1.40;;;;;;;4.84;94.14;148879.47;1742805;81;21100;-62
2022/04/11 04:16:06;;;;;;;2.10;1.35;;;;;;;4.87;94.07;148887.20;1766368;81;21018;-62
2022/04/11 04:18:36;;;;;;;1.57;1.30;;;;;;;4.90;94.05;148892.38;1766223;80;21042;-63
2022/04/11 04:21:05;;;;;;;1.60;1.10;;;;;;;4.90;94.05;148892.38;1766415;81;21070;-63
2022/04/11 04:23:32;;;;;;;4.75;1.62;;;;;;;4.90;93.59;148892.38;1766551;81;21537;-65
2022/04/11 04:26:01;;;;;;;4.37;1.65;;;;;;;4.91;93.39;148894.95;1766168;80;21224;-63
2022/04/11 04:28:28;;;;;;;3.12;1.95;;;;;;;4.92;93.47;148897.53;1766373;81;21043;-63
2022/04/11 04:30:56;;;;;;;2.98;1.30;;;;;;;4.94;93.45;148902.69;1766887;81;21238;-63
2022/04/11 04:33:23;;;;;;;2.15;1.50;;;;;;;4.95;93.08;148905.28;1766791;81;21559;-62
2022/04/11 04:35:51;;;;;;;2.72;1.30;;;;;;;4.96;92.90;148907.86;1766380;81;21241;-62
2022/04/11 04:38:19;;;;;;;2.15;1.67;;;;;;;4.96;92.75;148909.17;1767008;81;21417;-62
2022/04/11 04:40:48;;;;;;;2.58;1.77;;;;;;;4.98;92.85;148913.06;1766323;80;21180;-67
2022/04/11 04:43:17;;;;;;;1.65;1.45;;;;;;;5.00;92.74;148919.50;1766870;81;21462;-66
2022/04/11 04:45:47;;;;;;;4.17;1.85;;;;;;;5.00;92.74;148919.50;1766436;80;21118;-66
2022/04/11 04:48:23;;;;;;;2.52;1.65;;;;;;;5.02;92.71;148924.67;1733887;82;21158;-68
2022/04/11 04:50:50;;;;;;;1.92;1.50;;;;;;;5.01;92.49;148920.81;1766207;81;21053;-68
2022/04/11 04:53:19;;;;;;;3.60;1.98;;;;;;;5.04;92.61;148928.56;1767292;80;20976;-67
2022/04/11 04:55:47;;;;;;;2.20;1.40;;;;;;;5.06;92.73;148932.41;1766731;81;21047;-68
2022/04/11 04:58:15;;;;;;;2.60;2.20;;;;;;;5.09;92.76;148940.22;1767007;81;21542;-64
2022/04/11 05:00:44;;;;;;;3.10;1.75;;;;;;;5.07;92.55;148936.31;1766606;81;21888;-65
2022/04/11 05:03:13;;;;;;;2.60;1.67;;;;;;;5.13;92.53;148951.81;1767021;81;21058;-63
2022/04/11 05:05:41;;;;;;;2.17;1.50;;;;;;;5.16;92.11;148959.56;1766486;81;21086;-63
2022/04/11 05:08:09;;;;;;;3.83;1.90;;;;;;;5.18;92.19;148962.14;1766967;81;21527;-64
2022/04/11 05:10:40;;;;;;;3.20;1.82;;;;;;;5.19;92.15;148964.72;1766043;80;21256;-64
2022/04/11 05:13:09;;;;;;;3.62;1.82;;;;;;;5.22;92.07;148973.78;1758894;80;21406;-67
2022/04/11 05:15:39;;;;;;;1.67;1.27;;;;;;;5.27;91.25;148985.44;1756924;81;21054;-64
2022/04/11 05:18:09;;;;;;;2.35;1.72;;;;;;;5.27;91.25;148985.44;1757329;81;20998;-69
2022/04/11 05:20:36;;;;;;;3.05;1.82;;;;;;;5.28;91.15;148989.28;1756915;81;21120;-68
2022/04/11 05:23:04;;;;;;;2.10;1.60;;;;;;;5.32;91.54;148997.08;1756810;80;21078;-64
2022/04/11 05:25:33;;;;;;;5.95;2.00;;;;;;;5.40;91.75;149017.73;1757212;81;21038;-64
2022/04/11 05:28:00;;;;;;;3.83;1.80;;;;;;;5.40;91.75;149017.73;1757190;81;21106;-64
2022/04/11 05:30:33;;;;;;;3.87;1.82;;;;;;;5.43;91.39;149026.81;1725797;81;20976;-63
2022/04/11 05:32:58;;;;;;;3.60;1.35;;;;;;;5.46;91.44;149033.23;1756142;81;20975;-63
2022/04/11 05:35:26;;;;;;;2.67;1.62;;;;;;;5.48;90.70;149037.14;1757171;81;21007;-67
2022/04/11 05:37:53;;;;;;;2.12;1.37;;;;;;;5.51;90.52;149044.89;1725076;83;21297;-63
2022/04/11 05:40:20;;;;;;;2.27;1.60;;;;;;;5.52;89.87;149048.73;1757151;81;21335;-63
2022/04/11 05:42:48;;;;;;;3.75;1.77;;;;;;;5.54;89.89;149052.64;1757036;80;21722;-65
2022/04/11 05:45:15;;;;;;;2.50;1.37;;;;;;;5.54;89.76;149053.95;1725922;83;21326;-63
2022/04/11 05:47:44;;;;;;;2.30;1.62;;;;;;;5.58;89.88;149062.97;1756989;81;21058;-63
2022/04/11 05:50:12;;;;;;;1.87;1.32;;;;;;;5.61;89.62;149070.72;1757396;81;21274;-64
2022/04/11 05:52:39;;;;;;;2.30;1.62;;;;;;;5.64;89.56;149078.52;1756406;80;21082;-63
2022/04/11 05:55:08;;;;;;;2.72;1.72;;;;;;;5.66;89.16;149083.69;1733452;80;21004;-67
2022/04/11 05:57:35;;;;;;;1.62;1.40;;;;;;;5.67;89.34;149086.27;1750814;81;21074;-67
2022/04/11 06:00:04;;;;;;;5.75;1.80;;;;;;;5.68;89.08;149088.84;1748293;82;21060;-68
2022/04/11 06:02:33;;;;;;;3.25;1.35;;;;;;;5.72;89.07;149097.87;1736842;82;21434;-67
2022/04/11 06:05:02;;;;;;;4.12;1.60;;;;;;;5.73;88.92;149101.77;1746607;81;21053;-67
2022/04/11 06:07:32;;;;;;;3.85;1.55;;;;;;;5.74;88.81;149104.34;1747914;81;21024;-67
2022/04/11 06:10:00;;;;;;;3.87;2.08;;;;;;;5.80;88.49;149117.28;1751252;81;21504;-68
2022/04/11 06:12:28;;;;;;;2.08;1.60;;;;;;;5.80;88.49;149117.28;1735234;80;21003;-67
2022/04/11 06:14:56;;;;;;;4.30;2.08;;;;;;;5.83;88.64;149125.02;1759997;80;21081;-68
2022/04/11 06:17:25;;;;;;;3.92;1.98;;;;;;;5.85;88.30;149130.19;1744275;80;21071;-67
2022/04/11 06:19:57;;;;;;;3.35;1.67;;;;;;;5.89;88.31;149140.58;1758862;81;21039;-67
2022/04/11 06:22:24;;;;;;;3.50;1.95;;;;;;;5.92;87.87;149148.33;1745832;81;21593;-67
2022/04/11 06:25:00;;;;;;;6.03;1.90;;;;;;;5.96;87.90;149157.34;1747898;81;21054;-69
2022/04/11 06:27:27;;;;;;;12.80;2.05;;;;;;;5.96;87.90;149157.34;1723174;81;21203;-67
2022/04/11 06:29:58;;;;;;;2.47;1.60;;;;;;;5.98;87.62;149163.83;1757472;81;21108;-68
2022/04/11 06:32:29;;;;;;;4.00;1.82;;;;;;;6.00;87.75;149169.00;1758836;80;21488;-66
2022/04/11 06:34:56;;;;;;;3.90;1.80;;;;;;;6.04;87.47;149176.80;1760133;81;20996;-69
2022/04/11 06:37:25;;;;;;;4.55;1.85;;;;;;;6.06;87.56;149181.97;1716591;82;21095;-67
2022/04/11 06:39:53;;;;;;;3.67;1.55;;;;;;;6.09;87.49;149189.77;1758466;81;21144;-67
2022/04/11 06:42:20;;;;;;;3.67;1.40;;;;;;;6.12;87.12;149198.80;1744949;81;21021;-67
2022/04/11 06:44:50;;;;;;;4.62;1.70;;;;;;;6.16;86.47;149207.86;1745438;81;21056;-67
2022/04/11 06:47:21;;;;;;;2.12;1.50;;;;;;;6.19;86.30;149215.62;1758769;81;21076;-68
2022/04/11 06:49:49;;;;;;;2.22;1.50;;;;;;;6.22;86.63;149223.37;1721730;81;21149;-67
2022/04/11 06:52:16;;;;;;;2.80;1.42;;;;;;;6.28;86.37;149238.88;1731660;81;21799;-67
2022/04/11 06:54:49;;;;;;;4.70;1.80;;;;;;;6.34;85.99;149251.84;1729808;81;21067;-67
2022/04/11 06:57:13;;;;;;;2.37;1.57;;;;;;;6.39;85.64;149264.78;1734200;81;21628;-67
2022/04/11 06:59:41;;;;;;;2.15;1.42;;;;;;;6.43;85.32;149275.11;1742546;81;21135;-67
2022/04/11 07:02:08;;;;;;;4.05;1.80;;;;;;;6.48;84.95;149288.03;1750696;81;21097;-67
2022/04/11 07:04:37;;;;;;;2.27;1.50;;;;;;;6.56;85.14;149307.45;1737511;81;21060;-67
2022/04/11 07:07:04;;;;;;;3.67;1.60;;;;;;;6.67;84.71;149335.94;1755163;80;21046;-68
2022/04/11 07:09:32;;;;;;;3.95;1.57;;;;;;;6.76;84.51;149357.94;1734169;81;20937;-67
2022/04/11 07:12:00;;;;;;;3.15;1.80;;;;;;;6.85;83.77;149379.91;1741537;81;21233;-68
2022/04/11 07:14:29;;;;;;;8.10;1.80;;;;;;;6.93;83.41;149399.31;1757336;81;21026;-68
2022/04/11 07:16:56;;;;;;;5.12;1.70;;;;;;;6.98;83.14;149412.30;1742342;81;21249;-68
2022/04/11 07:19:24;;;;;;;5.42;1.77;;;;;;;7.02;83.09;149423.91;1735880;81;21106;-68
2022/04/11 07:21:52;;;;;;;7.28;1.77;;;;;;;7.02;82.16;149423.91;1731677;81;21083;-68
2022/04/11 07:24:20;;;;;;;3.20;1.55;;;;;;;7.00;81.83;149418.73;1738696;81;21135;-68
2022/04/11 07:26:49;;;;;;;4.90;1.50;;;;;;;6.98;82.80;149412.30;1750640;81;21328;-64
2022/04/11 07:29:16;;;;;;;11.93;1.77;;;;;;;7.00;82.96;149418.73;1744760;81;21269;-65
2022/04/11 07:31:45;;;;;;;2.92;1.75;;;;;;;7.00;82.50;149417.47;1727193;81;21093;-65
2022/04/11 07:34:13;;;;;;;5.00;1.75;;;;;;;6.99;82.24;149416.16;1738139;81;21734;-68
2022/04/11 07:36:41;;;;;;;5.28;1.67;;;;;;;7.04;82.18;149427.81;1728753;83;21015;-69
2022/04/11 07:39:08;;;;;;;2.47;1.32;;;;;;;7.08;81.77;149438.16;1729283;83;21524;-64
2022/04/11 07:41:36;;;;;;;3.62;1.70;;;;;;;7.14;81.89;149453.67;1728643;83;21178;-63
2022/04/11 07:44:04;;;;;;;2.60;1.60;;;;;;;7.20;81.82;149466.66;1746132;81;21030;-64
2022/04/11 07:46:32;;;;;;;3.17;2.33;;;;;;;7.24;81.27;149477.00;1740418;81;21058;-64
2022/04/11 07:49:00;;;;;;;5.12;1.65;;;;;;;7.25;80.97;149480.86;1745431;81;21433;-68
2022/04/11 07:51:28;;;;;;;2.05;1.40;;;;;;;7.28;81.12;149488.63;1756636;81;20999;-67
2022/04/11 07:53:55;;;;;;;4.80;1.57;;;;;;;7.30;80.49;149492.53;1760451;81;21167;-69
2022/04/11 07:56:22;;;;;;;3.58;1.40;;;;;;;7.29;80.44;149491.25;1751187;81;20938;-67
2022/04/11 07:58:50;;;;;;;12.47;1.75;;;;;;;7.24;80.21;149477.00;1740530;81;21830;-63
2022/04/11 08:01:17;;;;;;;5.37;2.15;;;;;;;7.22;80.52;149473.09;1760328;81;20964;-62
2022/04/11 08:03:44;;;;;;;2.98;1.37;;;;;;;7.25;80.42;149479.59;1760048;81;21047;-65
2022/04/11 08:06:11;;;;;;;8.18;1.90;;;;;;;7.25;80.20;149479.59;1758436;81;21124;-64
2022/04/11 08:08:44;;;;;;;2.60;1.47;;;;;;;7.30;80.28;149493.84;1760582;81;21098;-64
2022/04/11 08:11:18;;;;;;;4.47;1.65;;;;;;;7.36;80.05;149508.03;1745494;81;21858;-65
2022/04/11 08:13:46;;;;;;;4.08;1.77;;;;;;;7.44;79.83;149528.78;1750708;80;21114;-63
2022/04/11 08:16:15;;;;;;;3.55;1.52;;;;;;;7.47;79.44;149533.95;1750567;80;21068;-63
2022/04/11 08:18:43;;;;;;;5.70;1.70;;;;;;;7.45;79.71;149531.38;1753459;81;21787;-64
2022/04/11 08:21:10;;;;;;;4.65;1.60;;;;;;;7.45;79.43;149531.38;1749903;81;21071;-63
2022/04/11 08:23:38;;;;;;;5.10;1.40;;;;;;;7.46;79.13;149532.64;1754791;80;20999;-64
2022/04/11 08:26:05;;;;;;;7.35;1.70;;;;;;;7.51;79.01;149544.31;1757321;80;21571;-63
2022/04/11 08:28:33;;;;;;;4.58;2.40;;;;;;;7.59;79.09;149565.00;1754890;81;20981;-63
2022/04/11 08:31:00;;;;;;;5.87;1.62;;;;;;;7.71;78.84;149596.11;1718878;83;21214;-63
2022/04/11 08:33:27;;;;;;;9.85;2.00;;;;;;;7.82;78.11;149621.98;1721167;82;20986;-68
2022/04/11 08:35:54;;;;;;;3.25;1.40;;;;;;;7.84;77.28;149627.16;1697769;83;21163;-68
2022/04/11 08:38:22;;;;;;;6.62;2.02;;;;;;;7.81;77.28;149619.39;1735192;81;20926;-64
2022/04/11 08:40:51;;;;;;;5.00;1.65;;;;;;;7.76;77.79;149606.45;1743426;80;21114;-64
2022/04/11 08:43:26;;;;;;;3.60;1.92;;;;;;;7.72;78.12;149597.37;1744550;81;21137;-66
2022/04/11 08:45:53;;;;;;;6.67;1.77;;;;;;;7.67;79.15;149585.75;1736540;81;26672;-64
2022/04/11 08:48:22;;;;;;;9.48;1.92;;;;;;;7.62;79.12;149572.77;1724829;81;21423;-64
2022/04/11 08:50:49;;;;;;;2.67;1.70;;;;;;;7.62;78.94;149572.77;1724200;81;21198;-65
2022/04/11 08:53:23;;;;;;;6.10;1.75;;;;;;;7.59;78.88;149565.00;1732100;81;20999;-63
2022/04/11 08:55:50;;;;;;;4.95;1.90;;;;;;;7.60;79.07;149567.59;1739195;80;21263;-63
2022/04/11 08:58:18;;;;;;;11.05;2.20;;;;;;;7.60;79.06;149567.59;1728344;81;21072;-63
2022/04/11 09:00:46;;;;;;;7.97;2.10;;;;;;;7.60;79.14;149567.59;1729975;81;21086;-68
2022/04/11 09:03:13;;;;;;;3.42;2.33;;;;;;;7.61;79.01;149570.19;1735140;81;21156;-68
2022/04/11 09:05:40;;;;;;;6.95;1.65;;;;;;;7.63;78.66;149575.41;1745593;80;21070;-68
2022/04/11 09:08:09;;;;;;;7.60;1.90;;;;;;;7.60;78.15;149567.59;1724983;81;21047;-67
2022/04/11 09:10:37;;;;;;;3.67;1.62;;;;;;;7.60;78.08;149567.59;1727672;81;21094;-68
2022/04/11 09:13:07;;;;;;;9.08;2.12;;;;;;;7.61;78.25;149570.19;1757516;81;21086;-67
2022/04/11 09:15:45;;;;;;;6.08;2.20;;;;;;;7.64;78.04;149578.00;1757148;80;21394;-67
2022/04/11 09:18:12;;;;;;;9.63;2.05;;;;;;;7.68;77.99;149588.34;1757741;81;21030;-67
2022/04/11 09:20:42;;;;;;;5.15;2.10;;;;;;;7.74;78.16;149603.86;1756849;81;21031;-69
2022/04/11 09:23:19;;;;;;;15.43;2.15;;;;;;;7.77;77.25;149609.05;1757040;81;21059;-69
2022/04/11 09:25:48;;;;;;;5.12;1.98;;;;;;;7.84;77.21;149628.47;1756944;81;21062;-67
2022/04/11 09:28:17;;;;;;;6.70;2.35;;;;;;;7.92;77.19;149646.59;1738364;80;21097;-67
2022/04/11 09:30:45;;;;;;;13.22;1.98;;;;;;;7.99;76.80;149666.03;1720664;82;21089;-67
2022/04/11 09:33:14;;;;;;;9.05;2.17;;;;;;;8.09;76.14;149689.38;1716525;82;21045;-67
2022/04/11 09:35:47;;;;;;;13.75;2.45;;;;;;;8.21;73.83;149719.16;1721542;82;21237;-67
2022/04/11 09:38:20;;;;;;;8.48;1.90;;;;;;;8.36;73.59;149756.72;1722102;83;21141;-66
2022/04/11 09:40:54;;;;;;;8.13;1.80;;;;;;;8.54;72.90;149803.42;1721704;83;21115;-67
2022/04/11 09:43:32;;;;;;;2.77;2.10;;;;;;;8.76;71.06;149857.84;1722128;82;21014;-67
2022/04/11 09:46:02;;;;;;;7.72;1.80;;;;;;;8.83;69.80;149875.97;1721246;83;21225;-69
2022/04/11 09:48:35;;;;;;;6.75;1.72;;;;;;;8.87;70.14;149886.33;1721540;83;21402;-67
2022/04/11 09:51:01;;;;;;;16.45;2.02;;;;;;;8.92;70.57;149896.69;1721098;82;21447;-67
2022/04/11 09:53:32;;;;;;;7.05;2.15;;;;;;;8.87;70.24;149885.06;1719823;83;21129;-68
2022/04/11 09:56:06;;;;;;;4.45;1.82;;;;;;;8.78;70.57;149863.03;1726065;83;21079;-67
2022/04/11 09:58:38;;;;;;;3.35;2.08;;;;;;;8.76;71.55;149857.84;1758237;80;21105;-67
2022/04/11 10:01:06;;;;;;;2.05;1.85;;;;;;;8.74;72.33;149852.66;1752313;81;21488;-68
2022/04/11 10:03:33;;;;;;;2.55;1.95;;;;;;;8.75;72.46;149855.25;1728423;81;21015;-69
2022/04/11 10:06:00;;;;;;;2.52;1.80;;;;;;;8.71;72.50;149844.84;1727237;83;21085;-68
2022/04/11 10:08:27;;;;;;;3.65;2.15;;;;;;;8.67;71.69;149835.81;1726749;81;21067;-67
2022/04/11 10:10:56;;;;;;;2.47;1.72;;;;;;;8.66;71.37;149831.91;1757373;80;21018;-68
2022/04/11 10:13:24;;;;;;;3.72;2.00;;;;;;;8.60;71.70;149818.95;1753049;80;20917;-68
2022/04/11 10:15:53;;;;;;;5.97;2.02;;;;;;;8.64;72.14;149826.72;1741247;81;21007;-69
2022/04/11 10:18:25;;;;;;;4.53;1.77;;;;;;;8.68;72.10;149837.08;1741827;82;21039;-67
2022/04/11 10:20:59;;;;;;;5.28;2.25;;;;;;;8.77;71.13;149860.44;1741085;82;21111;-67
2022/04/11 10:23:41;;;;;;;3.10;2.02;;;;;;;8.82;70.13;149873.38;1740919;81;21774;-67
2022/04/11 10:26:17;;;;;;;6.47;2.00;;;;;;;8.93;69.96;149899.28;1718277;81;21052;-66
2022/04/11 10:28:51;;;;;;;4.58;1.85;;;;;;;9.06;68.26;149933.00;1713472;82;21142;-67
2022/04/11 10:31:18;;;;;;;6.40;2.00;;;;;;;9.15;67.70;149955.03;1724719;81;21060;-67
2022/04/11 10:33:58;;;;;;;6.83;2.30;;;;;;;9.21;66.68;149969.31;1693517;83;21082;-68
2022/04/11 10:36:37;;;;;;;2.83;2.12;;;;;;;9.31;65.96;149996.53;1693513;84;21221;-67
2022/04/11 10:39:22;;;;;;;7.12;2.30;;;;;;;9.40;65.96;150017.27;1745041;82;21099;-69
2022/04/11 10:42:05;;;;;;;4.17;2.17;;;;;;;9.55;65.92;150056.17;1741825;81;21075;-67
2022/04/11 10:44:50;;;;;;;6.42;2.30;;;;;;;9.71;65.42;150096.36;1741375;81;20953;-67
2022/04/11 10:47:26;;;;;;;10.23;2.90;;;;;;;9.72;64.58;150098.95;1741934;80;21015;-67
2022/04/11 10:50:01;;;;;;;7.28;2.00;;;;;;;9.72;64.57;150098.95;1741022;81;21268;-69
2022/04/11 10:52:33;;;;;;;7.67;2.50;;;;;;;9.79;63.87;150114.50;1741585;81;21032;-67
2022/04/11 10:55:17;;;;;;;7.12;2.37;;;;;;;9.86;63.63;150132.70;1715804;81;21049;-69
2022/04/11 10:57:54;;;;;;;11.22;2.35;;;;;;;9.89;63.97;150140.47;1725895;82;21064;-67
2022/04/11 11:00:31;;;;;;;12.15;3.08;;;;;;;9.91;63.04;150145.66;1743595;82;21008;-68
2022/04/11 11:03:04;;;;;;;5.22;2.62;;;;;;;9.91;62.26;150145.66;1726479;83;21088;-64
2022/04/11 11:05:45;;;;;;;4.47;2.12;;;;;;;9.94;62.15;150153.44;1717180;83;20903;-68
2022/04/11 11:08:17;;;;;;;5.70;2.75;;;;;;;9.92;61.48;150148.25;1700024;83;21061;-68
2022/04/11 11:11:02;;;;;;;9.70;2.62;;;;;;;9.93;61.46;150150.84;1725663;83;20992;-68
2022/04/11 11:13:40;;;;;;;4.58;2.52;;;;;;;9.88;60.96;150137.88;1684889;81;21001;-68
2022/04/11 11:16:15;;;;;;;6.58;2.70;;;;;;;9.86;60.66;150133.97;1749580;82;21019;-68
2022/04/11 11:18:52;;;;;;;6.28;3.12;;;;;;;9.88;61.51;150137.88;1749258;82;21103;-68
2022/04/11 11:21:44;;;;;;;11.60;2.40;;;;;;;9.97;60.66;150161.20;1746787;82;21063;-67
2022/04/11 11:24:11;;;;;;;5.55;2.75;;;;;;;10.00;60.26;150168.98;1758040;80;21542;-67
2022/04/11 11:26:53;;;;;;;6.62;3.27;;;;;;;10.02;60.55;150172.89;1774401;80;21064;-68
2022/04/11 11:29:34;;;;;;;8.48;4.28;;;;;;;10.03;60.32;150175.48;1749733;82;21514;-69
2022/04/11 11:32:05;;;;;;;7.05;2.83;;;;;;;9.99;59.42;150165.12;1749365;82;21039;-68
2022/04/11 11:34:36;;;;;;;12.73;2.83;;;;;;;9.93;60.30;150150.84;1749625;82;20932;-68
2022/04/11 11:37:12;;;;;;;12.65;3.02;;;;;;;9.88;60.96;150137.88;1749485;82;21291;-68
2022/04/11 11:39:43;;;;;;;4.83;2.37;;;;;;;9.87;61.20;150136.56;1749440;82;20999;-67
2022/04/11 11:42:17;;;;;;;8.08;2.90;;;;;;;9.94;61.18;150153.44;1749492;82;21499;-67